createdAt,value
2018-03-29T00:00:49.752Z,59.80
2018-03-29T00:03:18.575Z,60.50
2018-03-29T00:05:46.610Z,60.50
2018-03-29T00:08:15.881Z,60.70
2018-03-29T00:10:44.083Z,60.60
2018-03-29T00:13:12.200Z,60.40
2018-03-29T00:15:40.461Z,60.20
2018-03-29T00:18:09.498Z,60.10
2018-03-29T00:20:38.063Z,60.00
2018-03-29T00:23:05.640Z,60.00
2018-03-29T00:25:33.304Z,59.60
2018-03-29T00:28:00.889Z,59.40
2018-03-29T00:30:28.537Z,59.30
2018-03-29T00:32:56.124Z,59.60
2018-03-29T00:35:24.055Z,59.80
2018-03-29T00:37:52.462Z,60.00
2018-03-29T00:40:20.899Z,60.20
2018-03-29T00:42:48.486Z,60.20
2018-03-29T00:46:45.292Z,60.00
2018-03-29T00:49:12.875Z,60.20
2018-03-29T00:51:41.284Z,60.00
2018-03-29T00:54:08.879Z,59.90
2018-03-29T00:56:36.488Z,60.10
2018-03-29T00:59:04.082Z,60.20
2018-03-29T01:01:32.463Z,60.40
2018-03-29T01:04:00.837Z,60.30
2018-03-29T01:06:28.468Z,60.30
2018-03-29T01:08:56.067Z,60.80
2018-03-29T01:11:23.774Z,60.80
2018-03-29T01:13:51.886Z,60.90
2018-03-29T01:16:19.516Z,60.80
2018-03-29T01:18:47.103Z,60.30
2018-03-29T01:21:14.692Z,60.10
2018-03-29T01:23:43.046Z,59.80
2018-03-29T01:26:10.639Z,59.70
2018-03-29T01:28:38.990Z,59.60
2018-03-29T01:31:06.582Z,59.30
2018-03-29T01:33:34.156Z,59.40
2018-03-29T01:36:01.758Z,59.70
2018-03-29T01:38:30.117Z,59.40
2018-03-29T01:40:57.714Z,59.30
2018-03-29T01:43:25.415Z,59.30
2018-03-29T01:45:53.039Z,59.50
2018-03-29T01:48:21.407Z,59.40
2018-03-29T01:50:48.990Z,59.40
2018-03-29T01:53:17.347Z,59.90
2018-03-29T01:55:44.960Z,59.10
2018-03-29T01:58:12.593Z,59.40
2018-03-29T02:00:40.246Z,59.30
2018-03-29T02:03:07.825Z,59.20
2018-03-29T02:05:36.179Z,59.30
2018-03-29T02:08:03.773Z,58.80
2018-03-29T02:10:31.383Z,58.70
2018-03-29T02:12:59.019Z,58.70
2018-03-29T02:15:26.599Z,59.20
2018-03-29T02:17:54.159Z,59.60
2018-03-29T02:20:21.757Z,59.80
2018-03-29T02:22:50.094Z,60.00
2018-03-29T02:25:17.686Z,59.90
2018-03-29T02:27:45.284Z,60.00
2018-03-29T02:30:13.660Z,59.80
2018-03-29T02:32:41.240Z,59.70
2018-03-29T02:35:09.764Z,59.40
2018-03-29T02:37:38.595Z,59.40
2018-03-29T02:40:06.190Z,59.40
2018-03-29T02:42:33.762Z,59.40
2018-03-29T02:45:01.350Z,59.30
2018-03-29T02:47:29.696Z,58.80
2018-03-29T02:49:57.265Z,58.80
2018-03-29T02:52:24.867Z,58.80
2018-03-29T02:54:52.468Z,58.80
2018-03-29T02:57:20.092Z,58.70
2018-03-29T02:59:47.686Z,58.90
2018-03-29T03:02:15.249Z,59.00
2018-03-29T03:04:43.586Z,58.90
2018-03-29T03:07:11.182Z,59.30
2018-03-29T03:09:39.128Z,59.00
2018-03-29T03:12:07.499Z,59.30
2018-03-29T03:14:35.068Z,59.30
2018-03-29T03:17:02.663Z,59.40
2018-03-29T03:19:31.059Z,59.50
2018-03-29T03:21:59.541Z,59.50
2018-03-29T03:24:27.179Z,59.50
2018-03-29T03:26:54.764Z,59.70
2018-03-29T03:29:22.374Z,59.70
2018-03-29T03:31:50.766Z,60.00
2018-03-29T03:34:19.116Z,60.30
2018-03-29T03:36:46.707Z,60.10
2018-03-29T03:39:14.284Z,60.30
2018-03-29T03:41:41.920Z,60.30
2018-03-29T03:44:09.552Z,60.50
2018-03-29T03:46:38.179Z,60.80
2018-03-29T03:49:05.765Z,60.60
2018-03-29T03:51:33.347Z,60.90
2018-03-29T03:54:00.954Z,61.00
2018-03-29T03:56:29.318Z,61.00
2018-03-29T03:58:56.898Z,60.90
2018-03-29T04:01:24.588Z,61.20
2018-03-29T04:03:53.010Z,61.60
2018-03-29T04:06:20.587Z,61.40
2018-03-29T04:08:48.198Z,61.80
2018-03-29T04:11:15.774Z,61.90
2018-03-29T04:13:43.417Z,61.80
2018-03-29T04:16:10.985Z,61.80
2018-03-29T04:18:39.382Z,61.90
2018-03-29T04:21:10.373Z,62.20
2018-03-29T04:23:38.132Z,62.10
2018-03-29T04:26:05.692Z,62.30
2018-03-29T04:28:33.287Z,62.40
2018-03-29T04:31:00.899Z,61.50
2018-03-29T04:33:29.262Z,61.50
2018-03-29T04:35:57.675Z,61.50
2018-03-29T04:38:25.290Z,61.40
2018-03-29T04:40:52.847Z,61.60
2018-03-29T04:43:20.440Z,60.50
2018-03-29T04:45:48.008Z,61.00
2018-03-29T04:48:15.585Z,61.00
2018-03-29T04:50:43.178Z,60.90
2018-03-29T04:53:11.326Z,61.20
2018-03-29T04:55:39.223Z,61.50
2018-03-29T04:58:06.784Z,61.80
2018-03-29T05:00:34.378Z,61.90
2018-03-29T05:03:02.006Z,62.00
2018-03-29T05:05:29.591Z,62.00
2018-03-29T05:07:58.359Z,62.10
2018-03-29T05:10:26.751Z,61.50
2018-03-29T05:12:55.136Z,61.40
2018-03-29T05:15:23.525Z,61.20
2018-03-29T05:17:51.132Z,61.20
2018-03-29T05:20:18.746Z,60.70
2018-03-29T05:22:46.352Z,60.00
2018-03-29T05:25:13.997Z,59.50
2018-03-29T05:27:47.881Z,59.30
2018-03-29T05:30:16.281Z,59.10
2018-03-29T05:32:43.957Z,58.90
2018-03-29T05:35:11.601Z,58.50
2018-03-29T05:37:40.084Z,58.50
2018-03-29T05:40:07.688Z,58.00
2018-03-29T05:42:35.380Z,57.90
2018-03-29T05:45:02.945Z,58.00
2018-03-29T05:47:30.597Z,57.70
2018-03-29T05:49:58.251Z,57.50
2018-03-29T05:52:25.949Z,57.80
2018-03-29T05:54:53.561Z,57.70
2018-03-29T05:57:21.195Z,57.70
2018-03-29T05:59:48.777Z,57.60
2018-03-29T06:02:16.702Z,57.50
2018-03-29T06:04:44.383Z,57.40
2018-03-29T06:07:12.683Z,57.40
2018-03-29T06:09:41.060Z,57.80
2018-03-29T06:12:08.664Z,57.80
2018-03-29T06:14:42.678Z,57.90
2018-03-29T06:17:16.819Z,58.10
2018-03-29T06:19:45.168Z,58.50
2018-03-29T06:22:12.831Z,58.50
2018-03-29T06:24:40.535Z,58.50
2018-03-29T06:27:08.712Z,58.80
2018-03-29T06:29:37.245Z,59.10
2018-03-29T06:32:06.487Z,58.70
2018-03-29T06:34:34.101Z,58.90
2018-03-29T06:37:02.794Z,59.10
2018-03-29T06:39:31.260Z,59.30
2018-03-29T06:41:59.082Z,59.80
2018-03-29T06:44:26.844Z,59.20
2018-03-29T06:46:54.500Z,59.40
2018-03-29T06:49:23.664Z,59.80
2018-03-29T06:51:51.534Z,59.20
2018-03-29T06:54:19.226Z,59.10
2018-03-29T06:56:46.828Z,59.30
2018-03-29T06:59:14.484Z,59.00
2018-03-29T07:01:42.150Z,59.20
2018-03-29T07:04:09.788Z,59.00
2018-03-29T07:06:39.006Z,59.30
2018-03-29T07:09:07.912Z,59.20
2018-03-29T07:11:35.560Z,59.00
2018-03-29T07:14:03.181Z,59.10
2018-03-29T07:16:30.915Z,59.30
2018-03-29T07:18:58.516Z,59.40
2018-03-29T07:21:26.812Z,59.70
2018-03-29T07:23:54.485Z,59.50
2018-03-29T07:26:22.142Z,59.40
2018-03-29T07:28:50.565Z,59.30
2018-03-29T07:31:18.228Z,59.30
2018-03-29T07:33:47.501Z,59.40
2018-03-29T07:36:15.142Z,59.40
2018-03-29T07:38:43.387Z,59.30
2018-03-29T07:41:11.752Z,59.40
2018-03-29T07:43:41.020Z,59.40
2018-03-29T07:46:11.997Z,59.40
2018-03-29T07:48:41.449Z,59.30
2018-03-29T07:51:09.881Z,58.70
2018-03-29T07:53:39.666Z,58.70
2018-03-29T07:56:07.277Z,58.60
2018-03-29T07:58:34.889Z,59.00
2018-03-29T08:01:03.207Z,58.90
2018-03-29T08:03:30.818Z,58.80
2018-03-29T08:05:58.495Z,58.60
2018-03-29T08:08:26.120Z,58.80
2018-03-29T08:10:54.540Z,58.80
2018-03-29T08:13:22.206Z,58.70
2018-03-29T08:15:49.803Z,58.50
2018-03-29T08:18:18.974Z,58.70
2018-03-29T08:20:46.643Z,58.60
2018-03-29T08:23:14.273Z,58.60
2018-03-29T08:25:41.849Z,58.90
2018-03-29T08:28:09.523Z,58.80
2018-03-29T08:30:37.141Z,58.60
2018-03-29T08:33:04.801Z,58.70
2018-03-29T08:35:32.410Z,58.60
2018-03-29T08:38:00.010Z,58.40
2018-03-29T08:40:27.600Z,58.40
2018-03-29T08:42:55.319Z,58.30
2018-03-29T08:45:23.679Z,58.50
2018-03-29T08:47:51.321Z,58.50
2018-03-29T08:50:18.955Z,58.70
2018-03-29T08:52:46.583Z,58.20
2018-03-29T08:55:14.206Z,57.70
2018-03-29T08:57:41.797Z,58.20
2018-03-29T09:00:10.143Z,57.40
2018-03-29T09:02:38.520Z,57.40
2018-03-29T09:06:33.229Z,57.10
2018-03-29T09:09:00.812Z,57.50
2018-03-29T09:11:28.397Z,57.50
2018-03-29T09:13:55.995Z,57.40
2018-03-29T09:16:23.729Z,57.20
2018-03-29T09:18:51.487Z,57.10
2018-03-29T09:21:20.817Z,56.80
2018-03-29T09:23:49.226Z,56.20
2018-03-29T09:26:17.577Z,56.50
2018-03-29T09:28:45.660Z,56.40
2018-03-29T09:31:13.260Z,57.00
2018-03-29T09:33:40.908Z,57.20
2018-03-29T09:36:08.632Z,57.50
2018-03-29T09:38:36.587Z,58.00
2018-03-29T09:41:05.039Z,58.70
2018-03-29T09:43:33.700Z,59.50
2018-03-29T09:46:01.807Z,58.90
2018-03-29T09:48:29.948Z,59.10
2018-03-29T09:50:58.356Z,59.50
2018-03-29T09:53:26.005Z,59.50
2018-03-29T09:55:53.620Z,59.70
2018-03-29T09:58:21.797Z,59.60
2018-03-29T10:00:49.856Z,59.70
2018-03-29T10:03:22.861Z,59.90
2018-03-29T10:05:52.029Z,60.20
2018-03-29T10:08:21.377Z,60.00
2018-03-29T10:10:49.092Z,59.90
2018-03-29T10:13:17.692Z,59.50
2018-03-29T10:15:45.295Z,59.40
2018-03-29T10:18:12.895Z,60.20
2018-03-29T10:20:40.461Z,59.40
2018-03-29T10:23:08.029Z,59.60
2018-03-29T10:25:35.639Z,59.30
2018-03-29T10:28:03.215Z,59.00
2018-03-29T10:30:30.826Z,58.70
2018-03-29T10:32:59.849Z,59.40
2018-03-29T10:35:30.330Z,58.80
2018-03-29T10:38:00.770Z,58.60
2018-03-29T10:40:28.404Z,58.70
2018-03-29T10:42:56.033Z,58.70
2018-03-29T10:45:23.632Z,58.40
2018-03-29T10:47:51.236Z,58.20
2018-03-29T10:50:18.911Z,58.40
2018-03-29T10:52:47.333Z,57.70
2018-03-29T10:55:14.906Z,57.60
2018-03-29T10:57:42.500Z,57.80
2018-03-29T11:00:11.365Z,56.90
2018-03-29T11:02:39.134Z,56.60
2018-03-29T11:05:06.700Z,56.60
2018-03-29T11:07:35.038Z,56.00
2018-03-29T11:10:02.642Z,55.90
2018-03-29T11:12:30.632Z,55.70
2018-03-29T11:14:58.292Z,55.70
2018-03-29T11:17:26.102Z,55.70
2018-03-29T11:19:54.443Z,57.70
2018-03-29T11:22:22.062Z,57.60
2018-03-29T11:24:50.420Z,58.80
2018-03-29T11:27:18.011Z,58.70
2018-03-29T11:29:45.602Z,59.50
2018-03-29T11:32:13.957Z,60.00
2018-03-29T11:34:41.797Z,59.90
2018-03-29T11:37:09.427Z,60.00
2018-03-29T11:39:37.065Z,60.00
2018-03-29T11:42:05.702Z,60.10
2018-03-29T11:44:34.057Z,59.20
2018-03-29T11:47:01.714Z,59.10
2018-03-29T11:49:29.329Z,60.50
2018-03-29T11:51:56.943Z,60.20
2018-03-29T11:54:24.567Z,59.40
2018-03-29T11:56:53.107Z,58.40
2018-03-29T11:59:22.792Z,58.60
2018-03-29T12:01:50.742Z,58.40
2018-03-29T12:04:18.372Z,59.00
2018-03-29T12:06:46.734Z,58.10
2018-03-29T12:09:17.266Z,58.00
2018-03-29T12:11:44.858Z,58.70
2018-03-29T12:14:13.235Z,57.20
2018-03-29T12:16:40.865Z,57.10
2018-03-29T12:19:08.529Z,57.30
2018-03-29T12:21:36.127Z,56.20
2018-03-29T12:24:03.834Z,56.00
2018-03-29T12:26:31.488Z,55.60
2018-03-29T12:28:59.112Z,54.90
2018-03-29T12:31:27.073Z,55.20
2018-03-29T12:33:54.936Z,55.80
2018-03-29T12:36:25.516Z,55.20
2018-03-29T12:38:53.899Z,55.30
2018-03-29T12:41:22.288Z,55.40
2018-03-29T12:43:50.685Z,54.80
2018-03-29T12:46:19.046Z,54.30
2018-03-29T12:48:46.668Z,54.20
2018-03-29T12:51:14.263Z,54.90
2018-03-29T12:53:41.887Z,55.00
2018-03-29T12:56:22.277Z,54.70
2018-03-29T12:58:49.948Z,55.00
2018-03-29T13:01:17.607Z,53.80
2018-03-29T13:03:45.213Z,52.70
2018-03-29T13:06:12.808Z,53.50
2018-03-29T13:08:40.399Z,52.70
2018-03-29T13:11:09.507Z,52.40
2018-03-29T13:13:38.721Z,52.20
2018-03-29T13:16:06.283Z,51.70
2018-03-29T13:18:33.839Z,52.00
2018-03-29T13:21:01.439Z,52.00
2018-03-29T13:23:29.955Z,52.40
2018-03-29T13:25:58.331Z,52.50
2018-03-29T13:28:25.917Z,52.40
2018-03-29T13:30:53.538Z,52.80
2018-03-29T13:33:21.131Z,51.60
2018-03-29T13:35:48.774Z,51.50
2018-03-29T13:38:16.872Z,52.50
2018-03-29T13:40:44.526Z,53.10
2018-03-29T13:43:12.105Z,53.40
2018-03-29T13:45:39.755Z,53.00
2018-03-29T13:48:07.394Z,54.60
2018-03-29T13:50:34.995Z,55.20
2018-03-29T13:53:03.344Z,54.80
2018-03-29T13:55:30.974Z,54.80
2018-03-29T13:57:58.572Z,55.20
2018-03-29T14:00:26.213Z,55.10
2018-03-29T14:02:53.904Z,55.30
2018-03-29T14:05:21.791Z,55.10
2018-03-29T14:07:49.560Z,54.30
2018-03-29T14:10:17.232Z,53.90
2018-03-29T14:12:44.881Z,53.30
2018-03-29T14:15:12.485Z,53.00
2018-03-29T14:17:41.012Z,52.60
2018-03-29T14:20:09.391Z,52.10
2018-03-29T14:22:37.024Z,52.00
2018-03-29T14:25:04.677Z,51.90
2018-03-29T14:27:32.296Z,51.40
2018-03-29T14:30:00.005Z,50.50
2018-03-29T14:32:27.636Z,50.60
2018-03-29T14:34:55.283Z,50.10
2018-03-29T14:37:22.939Z,50.00
2018-03-29T14:39:51.318Z,50.40
2018-03-29T14:42:18.907Z,49.80
2018-03-29T14:44:47.442Z,49.00
2018-03-29T14:47:15.044Z,49.00
2018-03-29T14:49:42.720Z,48.60
2018-03-29T14:52:10.321Z,48.60
2018-03-29T14:54:39.827Z,49.00
2018-03-29T14:57:07.503Z,49.70
2018-03-29T14:59:36.081Z,52.10
2018-03-29T15:02:03.817Z,52.10
2018-03-29T15:04:31.628Z,52.60
2018-03-29T15:06:59.251Z,53.80
2018-03-29T15:09:27.657Z,53.50
2018-03-29T15:11:55.294Z,53.40
2018-03-29T15:17:01.342Z,52.80
2018-03-29T15:19:32.632Z,52.80
2018-03-29T15:22:00.952Z,52.80
2018-03-29T15:24:29.329Z,51.20
2018-03-29T15:26:57.536Z,51.70
2018-03-29T15:29:25.907Z,51.90
2018-03-29T15:31:55.010Z,52.10
2018-03-29T15:34:22.685Z,51.60
2018-03-29T15:36:50.247Z,52.20
2018-03-29T15:39:18.628Z,52.50
2018-03-29T15:41:47.027Z,51.60
2018-03-29T15:44:15.438Z,50.50
2018-03-29T15:46:43.078Z,50.70
2018-03-29T15:49:10.654Z,50.80
2018-03-29T15:51:38.648Z,50.20
2018-03-29T15:54:06.248Z,49.50
2018-03-29T15:56:35.321Z,49.50
2018-03-29T15:59:03.001Z,49.40
2018-03-29T16:01:30.621Z,50.10
2018-03-29T16:03:58.239Z,49.00
2018-03-29T16:06:25.899Z,49.20
2018-03-29T16:08:53.511Z,49.70
2018-03-29T16:11:21.148Z,49.20
2018-03-29T16:13:48.790Z,48.70
2018-03-29T16:16:17.224Z,47.40
2018-03-29T16:18:44.815Z,47.70
2018-03-29T16:21:12.658Z,47.60
2018-03-29T16:23:40.252Z,46.00
2018-03-29T16:26:08.335Z,46.00
2018-03-29T16:28:36.839Z,45.30
2018-03-29T16:31:05.888Z,45.10
2018-03-29T16:33:33.487Z,45.00
2018-03-29T16:36:01.307Z,44.70
2018-03-29T16:38:30.627Z,46.00
2018-03-29T16:40:58.464Z,45.70
2018-03-29T16:43:26.188Z,45.50
2018-03-29T16:45:53.862Z,45.00
2018-03-29T16:48:21.593Z,45.30
2018-03-29T16:50:50.700Z,44.60
2018-03-29T16:53:19.387Z,45.70
2018-03-29T16:55:47.027Z,45.10
2018-03-29T16:58:14.647Z,45.70
2018-03-29T17:00:42.391Z,45.30
2018-03-29T17:03:10.226Z,45.40
2018-03-29T17:05:38.144Z,45.20
2018-03-29T17:08:05.750Z,45.40
2018-03-29T17:10:33.375Z,45.80
2018-03-29T17:13:01.760Z,45.80
2018-03-29T17:15:29.395Z,45.80
2018-03-29T17:17:56.995Z,45.80
2018-03-29T17:20:24.928Z,45.70
2018-03-29T17:22:52.601Z,45.90
2018-03-29T17:25:20.194Z,45.50
2018-03-29T17:27:47.864Z,45.80
2018-03-29T17:30:15.496Z,46.30
2018-03-29T17:32:44.914Z,46.70
2018-03-29T17:35:13.437Z,46.60
2018-03-29T17:37:41.102Z,47.00
2018-03-29T17:40:08.751Z,47.20
2018-03-29T17:42:37.178Z,47.80
2018-03-29T17:45:04.750Z,47.60
2018-03-29T17:47:33.399Z,48.00
2018-03-29T17:50:01.772Z,48.40
2018-03-29T17:52:29.346Z,48.10
2018-03-29T17:54:57.003Z,48.20
2018-03-29T17:57:24.628Z,48.20
2018-03-29T17:59:52.341Z,48.40
2018-03-29T18:02:20.692Z,48.60
2018-03-29T18:04:49.071Z,48.80
2018-03-29T18:07:17.982Z,48.70
2018-03-29T18:09:45.910Z,49.00
2018-03-29T18:12:14.592Z,49.00
2018-03-29T18:14:42.365Z,49.20
2018-03-29T18:17:10.092Z,49.50
2018-03-29T18:19:37.761Z,49.80
2018-03-29T18:22:05.403Z,50.00
2018-03-29T18:24:32.961Z,50.30
2018-03-29T18:27:00.549Z,50.50
2018-03-29T18:29:28.140Z,50.60
2018-03-29T18:31:56.910Z,50.80
2018-03-29T18:34:24.484Z,50.90
2018-03-29T18:36:52.076Z,51.00
2018-03-29T18:39:19.654Z,51.10
2018-03-29T18:41:47.233Z,51.20
2018-03-29T18:44:14.801Z,51.40
2018-03-29T18:46:42.363Z,51.40
2018-03-29T18:49:10.732Z,51.80
2018-03-29T18:51:38.585Z,51.80
2018-03-29T18:54:06.920Z,52.00
2018-03-29T18:56:34.493Z,52.00
2018-03-29T18:59:02.076Z,52.10
2018-03-29T19:01:29.660Z,52.10
2018-03-29T19:03:57.337Z,52.30
2018-03-29T19:06:24.907Z,52.30
2018-03-29T19:08:53.245Z,53.10
2018-03-29T19:11:21.128Z,52.50
2018-03-29T19:13:48.715Z,52.60
2018-03-29T19:16:16.363Z,52.70
2018-03-29T19:18:43.962Z,52.80
2018-03-29T19:21:11.570Z,52.90
2018-03-29T19:23:39.419Z,53.00
2018-03-29T19:26:07.011Z,53.00
2018-03-29T19:28:34.590Z,53.10
2018-03-29T19:31:02.242Z,53.10
2018-03-29T19:33:29.826Z,53.10
2018-03-29T19:35:57.417Z,53.20
2018-03-29T19:38:24.994Z,53.40
2018-03-29T19:40:53.345Z,53.40
2018-03-29T19:43:20.924Z,53.40
2018-03-29T19:45:49.338Z,53.40
2018-03-29T19:48:17.671Z,54.00
2018-03-29T19:50:45.268Z,53.40
2018-03-29T19:53:13.603Z,53.70
2018-03-29T19:55:42.433Z,53.70
2018-03-29T19:58:10.111Z,53.70
2018-03-29T20:00:38.027Z,53.60
2018-03-29T20:03:06.428Z,53.80
2018-03-29T20:05:34.945Z,53.80
2018-03-29T20:08:02.666Z,53.80
2018-03-29T20:10:30.323Z,54.00
2018-03-29T20:12:57.934Z,54.10
2018-03-29T20:15:26.361Z,54.20
2018-03-29T20:17:55.284Z,54.20
2018-03-29T20:20:22.883Z,54.10
2018-03-29T20:22:51.096Z,54.10
2018-03-29T20:25:19.148Z,54.10
2018-03-29T20:27:46.723Z,54.10
2018-03-29T20:30:14.305Z,54.10
2018-03-29T20:32:41.933Z,54.10
2018-03-29T20:35:10.271Z,54.20
2018-03-29T20:37:37.937Z,54.20
2018-03-29T20:40:05.588Z,54.20
2018-03-29T20:42:34.391Z,54.20
2018-03-29T20:45:02.003Z,54.20
2018-03-29T20:47:29.597Z,54.30
2018-03-29T20:49:57.383Z,54.20
2018-03-29T20:52:25.045Z,54.30
2018-03-29T20:54:52.656Z,54.30
2018-03-29T20:57:21.227Z,54.30
2018-03-29T20:59:49.997Z,54.20
2018-03-29T21:02:18.562Z,54.30
2018-03-29T21:04:46.133Z,54.30
2018-03-29T21:07:13.713Z,54.40
2018-03-29T21:09:41.288Z,54.20
2018-03-29T21:12:08.877Z,54.20
2018-03-29T21:14:36.450Z,54.30
2018-03-29T21:17:04.042Z,54.50
2018-03-29T21:19:31.635Z,54.80
2018-03-29T21:21:59.268Z,54.90
2018-03-29T21:24:26.838Z,54.90
2018-03-29T21:26:55.137Z,54.80
2018-03-29T21:29:22.699Z,54.90
2018-03-29T21:31:51.060Z,55.10
2018-03-29T21:34:18.635Z,55.10
2018-03-29T21:36:46.267Z,55.30
2018-03-29T21:39:13.906Z,55.40
2018-03-29T21:41:42.128Z,55.60
2018-03-29T21:44:09.782Z,55.60
2018-03-29T21:46:37.503Z,55.60
2018-03-29T21:49:05.156Z,55.60
2018-03-29T21:51:33.538Z,55.60
2018-03-29T21:54:01.116Z,55.50
2018-03-29T21:56:28.686Z,55.40
2018-03-29T21:58:57.165Z,55.80
2018-03-29T22:01:26.144Z,55.80
2018-03-29T22:03:53.881Z,55.80
2018-03-29T22:06:21.494Z,55.70
2018-03-29T22:08:49.069Z,55.70
2018-03-29T22:11:18.021Z,55.80
2018-03-29T22:13:50.791Z,56.00
2018-03-29T22:16:18.406Z,56.00
2018-03-29T22:18:47.140Z,56.10
2018-03-29T22:21:14.791Z,56.10
2018-03-29T22:23:42.414Z,56.10
2018-03-29T22:26:11.483Z,56.10
2018-03-29T22:28:40.008Z,56.00
2018-03-29T22:31:07.618Z,55.90
2018-03-29T22:33:35.991Z,56.20
2018-03-29T22:36:04.426Z,56.30
2018-03-29T22:38:32.048Z,56.30
2018-03-29T22:40:59.684Z,56.40
2018-03-29T22:43:27.467Z,56.50
2018-03-29T22:45:55.231Z,56.40
2018-03-29T22:48:24.082Z,56.50
2018-03-29T22:50:51.977Z,56.50
2018-03-29T22:53:20.330Z,56.50
2018-03-29T22:55:47.903Z,56.50
2018-03-29T22:58:15.733Z,56.50
2018-03-29T23:00:43.328Z,56.50
2018-03-29T23:03:11.025Z,56.50
2018-03-29T23:05:41.031Z,56.70
2018-03-29T23:08:08.649Z,56.80
2018-03-29T23:10:36.243Z,57.00
2018-03-29T23:13:04.638Z,57.10
2018-03-29T23:15:33.060Z,57.20
2018-03-29T23:18:00.657Z,57.10
2018-03-29T23:20:28.397Z,57.30
2018-03-29T23:22:56.360Z,57.30
2018-03-29T23:25:24.090Z,57.30
2018-03-29T23:27:51.877Z,57.50
2018-03-29T23:30:19.479Z,57.50
2018-03-29T23:32:47.826Z,57.60
2018-03-29T23:35:15.621Z,57.40
2018-03-29T23:37:44.018Z,57.80
2018-03-29T23:40:13.103Z,57.70
2018-03-29T23:42:40.877Z,57.60
2018-03-29T23:45:08.640Z,57.60
2018-03-29T23:47:36.237Z,57.50
2018-03-29T23:50:03.843Z,57.50
2018-03-29T23:52:32.405Z,57.40
2018-03-29T23:55:00.992Z,57.40
2018-03-29T23:57:31.096Z,57.40
2018-03-29T23:59:58.703Z,57.30
